createdAt,value
2018-03-24T00:00:32.160Z,27.84
2018-03-24T00:01:32.015Z,27.83
2018-03-24T00:02:31.984Z,27.87
2018-03-24T00:03:31.996Z,27.74
2018-03-24T00:04:31.933Z,27.75
2018-03-24T00:05:32.057Z,27.84
2018-03-24T00:06:31.904Z,27.71
2018-03-24T00:07:31.881Z,27.65
2018-03-24T00:08:31.882Z,27.62
2018-03-24T00:09:31.844Z,27.61
2018-03-24T00:10:31.918Z,27.68
2018-03-24T00:11:31.775Z,27.64
2018-03-24T00:12:31.819Z,27.51
2018-03-24T00:13:31.742Z,27.46
2018-03-24T00:14:31.795Z,27.42
2018-03-24T00:15:31.808Z,27.30
2018-03-24T00:16:31.663Z,27.33
2018-03-24T00:17:31.659Z,27.30
2018-03-24T00:18:31.618Z,27.33
2018-03-24T00:19:31.615Z,27.33
2018-03-24T00:20:31.680Z,27.33
2018-03-24T00:21:31.561Z,27.34
2018-03-24T00:22:31.525Z,27.27
2018-03-24T00:23:31.488Z,27.24
2018-03-24T00:24:31.479Z,27.19
2018-03-24T00:25:31.465Z,27.12
2018-03-24T00:26:31.565Z,27.11
2018-03-24T00:27:31.439Z,27.11
2018-03-24T00:28:31.412Z,27.15
2018-03-24T00:29:31.339Z,27.15
2018-03-24T00:30:31.370Z,27.09
2018-03-24T00:31:31.324Z,27.09
2018-03-24T00:32:31.400Z,27.09
2018-03-24T00:33:31.257Z,27.09
2018-03-24T00:34:31.794Z,27.09
2018-03-24T00:35:31.223Z,27.11
2018-03-24T00:36:31.200Z,27.09
2018-03-24T00:37:31.263Z,27.08
2018-03-24T00:38:31.133Z,27.01
2018-03-24T00:39:31.478Z,26.97
2018-03-24T00:40:31.166Z,27.01
2018-03-24T00:41:31.158Z,26.99
2018-03-24T00:42:31.707Z,27.04
2018-03-24T00:43:31.021Z,27.05
2018-03-24T00:44:30.984Z,26.99
2018-03-24T00:45:30.970Z,26.97
2018-03-24T00:46:30.959Z,26.90
2018-03-24T00:47:31.130Z,26.90
2018-03-24T00:48:30.943Z,26.89
2018-03-24T00:49:30.858Z,26.82
2018-03-24T00:50:30.845Z,26.84
2018-03-24T00:51:30.803Z,26.82
2018-03-24T00:52:31.013Z,26.87
2018-03-24T00:53:30.771Z,26.86
2018-03-24T00:54:30.816Z,26.89
2018-03-24T00:55:30.769Z,26.91
2018-03-24T00:56:30.710Z,26.75
2018-03-24T00:57:30.873Z,26.74
2018-03-24T00:58:30.676Z,26.76
2018-03-24T00:59:30.625Z,26.79
2018-03-24T01:00:30.625Z,26.86
2018-03-24T01:01:30.569Z,26.68
2018-03-24T01:02:30.596Z,26.71
2018-03-24T01:03:30.738Z,26.71
2018-03-24T01:04:30.515Z,26.68
2018-03-24T01:05:30.485Z,26.68
2018-03-24T01:06:30.456Z,26.59
2018-03-24T01:07:30.427Z,26.52
2018-03-24T01:08:30.390Z,26.53
2018-03-24T01:09:30.572Z,26.53
2018-03-24T01:10:30.348Z,26.47
2018-03-24T01:11:30.338Z,26.53
2018-03-24T01:12:30.307Z,26.53
2018-03-24T01:13:30.278Z,26.56
2018-03-24T01:14:30.759Z,26.61
2018-03-24T01:15:30.978Z,26.60
2018-03-24T01:16:30.198Z,26.63
2018-03-24T01:17:30.177Z,26.64
2018-03-24T01:18:30.166Z,26.69
2018-03-24T01:19:30.144Z,26.67
2018-03-24T01:20:30.307Z,26.64
2018-03-24T01:21:30.080Z,26.60
2018-03-24T01:22:30.065Z,26.53
2018-03-24T01:23:30.042Z,26.54
2018-03-24T01:24:30.003Z,26.53
2018-03-24T01:25:30.207Z,26.54
2018-03-24T01:26:29.989Z,26.56
2018-03-24T01:27:29.948Z,26.49
2018-03-24T01:28:29.922Z,26.38
2018-03-24T01:29:29.880Z,26.50
2018-03-24T01:30:30.078Z,26.42
2018-03-24T01:31:29.836Z,26.41
2018-03-24T01:32:29.827Z,26.31
2018-03-24T01:33:29.814Z,26.31
2018-03-24T01:34:29.764Z,26.30
2018-03-24T01:35:30.379Z,26.32
2018-03-24T01:36:29.736Z,26.32
2018-03-24T01:37:29.694Z,26.17
2018-03-24T01:38:29.663Z,26.27
2018-03-24T01:39:29.618Z,26.20
2018-03-24T01:40:29.646Z,26.22
2018-03-24T01:41:29.801Z,26.17
2018-03-24T01:42:29.569Z,26.19
2018-03-24T01:43:30.372Z,26.19
2018-03-24T01:44:29.532Z,26.22
2018-03-24T01:45:29.500Z,26.15
2018-03-24T01:46:29.531Z,26.23
2018-03-24T01:47:29.640Z,26.20
2018-03-24T01:48:29.416Z,26.23
2018-03-24T01:49:30.004Z,26.22
2018-03-24T01:50:29.371Z,26.23
2018-03-24T01:51:29.374Z,26.20
2018-03-24T01:52:29.378Z,26.31
2018-03-24T01:53:29.547Z,26.20
2018-03-24T01:54:29.268Z,26.20
2018-03-24T01:55:29.277Z,26.22
2018-03-24T01:56:29.199Z,26.30
2018-03-24T01:57:29.183Z,26.31
2018-03-24T01:58:29.182Z,26.30
2018-03-24T01:59:29.323Z,26.30
2018-03-24T02:00:29.108Z,26.32
2018-03-24T02:01:29.091Z,26.34
2018-03-24T02:02:29.140Z,26.20
2018-03-24T02:03:29.059Z,26.19
2018-03-24T02:04:29.213Z,26.19
2018-03-24T02:05:29.007Z,26.19
2018-03-24T02:06:29.640Z,26.19
2018-03-24T02:07:28.939Z,26.17
2018-03-24T02:08:28.946Z,26.20
2018-03-24T02:09:29.595Z,26.16
2018-03-24T02:10:28.950Z,26.22
2018-03-24T02:11:28.848Z,26.20
2018-03-24T02:12:28.821Z,26.11
2018-03-24T02:13:28.820Z,26.04
2018-03-24T02:14:28.926Z,26.11
2018-03-24T02:15:29.053Z,26.06
2018-03-24T02:16:28.710Z,26.04
2018-03-24T02:17:29.167Z,26.07
2018-03-24T02:18:30.293Z,26.03
2018-03-24T02:19:28.720Z,26.03
2018-03-24T02:20:28.766Z,26.06
2018-03-24T02:21:29.435Z,25.94
2018-03-24T02:22:28.582Z,26.11
2018-03-24T02:23:28.594Z,26.04
2018-03-24T02:24:29.073Z,26.00
2018-03-24T02:25:28.477Z,26.01
2018-03-24T02:26:28.694Z,25.84
2018-03-24T02:27:28.656Z,25.93
2018-03-24T02:28:28.452Z,25.85
2018-03-24T02:29:28.411Z,25.88
2018-03-24T02:30:28.330Z,25.82
2018-03-24T02:31:28.863Z,25.84
2018-03-24T02:32:29.060Z,25.81
2018-03-24T02:33:29.067Z,25.88
2018-03-24T02:34:28.307Z,25.85
2018-03-24T02:35:28.275Z,25.81
2018-03-24T02:36:28.278Z,25.86
2018-03-24T02:37:28.152Z,25.84
2018-03-24T02:38:28.132Z,25.84
2018-03-24T02:39:28.329Z,25.82
2018-03-24T02:40:28.165Z,25.82
2018-03-24T02:41:28.098Z,25.79
2018-03-24T02:42:28.033Z,25.89
2018-03-24T02:43:28.052Z,25.82
2018-03-24T02:44:28.281Z,25.79
2018-03-24T02:45:27.981Z,25.82
2018-03-24T02:46:27.988Z,25.82
2018-03-24T02:47:27.895Z,25.76
2018-03-24T02:48:27.917Z,25.76
2018-03-24T02:49:28.078Z,25.79
2018-03-24T02:50:27.858Z,25.66
2018-03-24T02:51:27.888Z,25.70
2018-03-24T02:52:28.342Z,25.71
2018-03-24T02:53:27.795Z,25.71
2018-03-24T02:54:27.800Z,25.74
2018-03-24T02:56:28.333Z,25.71
2018-03-24T02:57:28.402Z,25.63
2018-03-24T02:58:27.690Z,25.57
2018-03-24T02:59:27.626Z,25.51
2018-03-24T03:00:27.579Z,25.49
2018-03-24T03:01:27.923Z,25.52
2018-03-24T03:02:27.997Z,25.57
2018-03-24T03:03:27.514Z,25.39
2018-03-24T03:04:27.475Z,25.44
2018-03-24T03:05:27.527Z,25.34
2018-03-24T03:06:28.260Z,25.23
2018-03-24T03:07:27.406Z,25.23
2018-03-24T03:08:27.459Z,25.20
2018-03-24T03:09:27.378Z,25.19
2018-03-24T03:10:27.373Z,25.17
2018-03-24T03:11:27.423Z,25.14
2018-03-24T03:12:27.509Z,25.07
2018-03-24T03:13:27.817Z,25.14
2018-03-24T03:14:27.299Z,25.17
2018-03-24T03:15:28.157Z,25.12
2018-03-24T03:16:27.314Z,25.00
2018-03-24T03:17:27.574Z,25.07
2018-03-24T03:18:27.135Z,25.08
2018-03-24T03:19:27.119Z,25.04
2018-03-24T03:20:27.061Z,25.01
2018-03-24T03:21:27.292Z,25.04
2018-03-24T03:22:27.310Z,25.04
2018-03-24T03:23:28.522Z,25.02
2018-03-24T03:24:28.276Z,24.93
2018-03-24T03:25:27.157Z,24.94
2018-03-24T03:26:27.251Z,24.93
2018-03-24T03:27:27.830Z,24.87
2018-03-24T03:28:26.900Z,24.80
2018-03-24T03:29:26.899Z,24.82
2018-03-24T03:30:27.190Z,24.82
2018-03-24T03:31:26.903Z,24.78
2018-03-24T03:32:27.232Z,24.74
2018-03-24T03:33:27.222Z,24.71
2018-03-24T03:34:26.955Z,24.71
2018-03-24T03:35:27.358Z,24.74
2018-03-24T03:36:27.188Z,24.77
2018-03-24T03:37:26.769Z,24.74
2018-03-24T03:38:26.804Z,24.78
2018-03-24T03:39:29.084Z,24.75
2018-03-24T03:40:27.038Z,24.64
2018-03-24T03:41:26.592Z,24.58
2018-03-24T03:42:27.451Z,24.64
2018-03-24T03:43:28.626Z,24.61
2018-03-24T03:44:26.658Z,24.61
2018-03-24T03:45:26.533Z,24.56
2018-03-24T03:46:26.835Z,24.61
2018-03-24T03:47:27.959Z,24.59
2018-03-24T03:48:26.341Z,24.66
2018-03-24T03:49:27.052Z,24.56
2018-03-24T03:50:26.318Z,24.64
2018-03-24T03:51:26.444Z,24.63
2018-03-24T03:52:26.307Z,24.66
2018-03-24T03:53:26.896Z,24.56
2018-03-24T03:54:27.826Z,24.56
2018-03-24T03:55:26.353Z,24.59
2018-03-24T03:56:26.533Z,24.66
2018-03-24T03:57:27.707Z,24.59
2018-03-24T03:58:26.196Z,24.64
2018-03-24T03:59:26.967Z,24.52
2018-03-24T04:00:26.496Z,24.55
2018-03-24T04:01:26.444Z,24.48
2018-03-24T04:02:26.767Z,24.55
2018-03-24T04:03:26.426Z,24.52
2018-03-24T04:04:27.257Z,24.48
2018-03-24T04:05:25.949Z,24.49
2018-03-24T04:06:26.146Z,24.40
2018-03-24T04:07:26.835Z,24.45
2018-03-24T04:08:26.797Z,24.42
2018-03-24T04:09:26.637Z,24.48
2018-03-24T04:10:26.899Z,24.33
2018-03-24T04:11:27.523Z,24.33
2018-03-24T04:12:27.066Z,24.37
2018-03-24T04:13:25.653Z,24.40
2018-03-24T04:14:27.358Z,24.33
2018-03-24T04:15:27.720Z,24.36
2018-03-24T04:16:27.534Z,24.33
2018-03-24T04:17:27.039Z,24.39
2018-03-24T04:18:26.175Z,24.32
2018-03-24T04:19:26.667Z,24.34
2018-03-24T04:20:26.137Z,24.22
2018-03-24T04:21:25.871Z,24.22
2018-03-24T04:22:26.539Z,24.19
2018-03-24T04:23:25.844Z,24.24
2018-03-24T04:24:25.578Z,24.12
2018-03-24T04:25:26.075Z,24.18
2018-03-24T04:26:26.322Z,24.07
2018-03-24T04:27:27.094Z,24.11
2018-03-24T04:28:27.341Z,24.14
2018-03-24T04:29:25.274Z,24.04
2018-03-24T04:30:25.198Z,24.12
2018-03-24T04:31:26.611Z,24.02
2018-03-24T04:32:26.918Z,23.94
2018-03-24T04:33:25.606Z,23.89
2018-03-24T04:34:27.445Z,23.94
2018-03-24T04:35:25.081Z,23.99
2018-03-24T04:36:25.596Z,23.99
2018-03-24T04:37:26.372Z,24.00
2018-03-24T04:38:26.651Z,23.84
2018-03-24T04:39:25.120Z,23.94
2018-03-24T04:40:27.810Z,23.87
2018-03-24T04:41:26.630Z,23.81
2018-03-24T04:42:24.934Z,23.84
2018-03-24T04:43:26.316Z,23.89
2018-03-24T04:44:26.308Z,23.84
2018-03-24T04:45:26.498Z,23.77
2018-03-24T04:46:24.998Z,23.75
2018-03-24T04:47:24.774Z,23.74
2018-03-24T04:48:26.270Z,23.72
2018-03-24T04:49:25.513Z,23.72
2018-03-24T04:50:24.680Z,23.75
2018-03-24T04:51:27.210Z,23.82
2018-03-24T04:52:25.269Z,23.77
2018-03-24T04:53:25.815Z,23.77
2018-03-24T04:54:25.834Z,23.77
2018-03-24T04:55:24.965Z,23.77
2018-03-24T04:56:25.855Z,23.70
2018-03-24T04:57:24.710Z,23.66
2018-03-24T04:58:24.482Z,23.62
2018-03-24T04:59:25.642Z,23.74
2018-03-24T05:00:25.303Z,23.77
2018-03-24T05:01:25.494Z,23.71
2018-03-24T05:02:26.236Z,23.78
2018-03-24T05:03:27.099Z,23.78
2018-03-24T05:04:26.542Z,23.85
2018-03-24T05:05:25.424Z,23.85
2018-03-24T05:06:24.844Z,23.82
2018-03-24T05:07:25.853Z,23.84
2018-03-24T05:08:25.824Z,23.78
2018-03-24T05:09:26.933Z,23.72
2018-03-24T05:10:25.568Z,23.75
2018-03-24T05:11:25.490Z,23.75
2018-03-24T05:12:25.779Z,23.71
2018-03-24T05:13:25.648Z,23.72
2018-03-24T05:14:25.698Z,23.75
2018-03-24T05:15:26.546Z,23.77
2018-03-24T05:16:25.706Z,23.77
2018-03-24T05:17:23.940Z,23.87
2018-03-24T05:18:25.459Z,23.89
2018-03-24T05:19:24.559Z,23.84
2018-03-24T05:20:25.113Z,23.87
2018-03-24T05:21:25.790Z,23.82
2018-03-24T05:22:23.827Z,23.75
2018-03-24T05:23:25.309Z,23.84
2018-03-24T05:24:25.299Z,23.94
2018-03-24T05:25:25.087Z,23.96
2018-03-24T05:26:25.633Z,23.96
2018-03-24T05:27:24.571Z,23.90
2018-03-24T05:28:25.058Z,23.92
2018-03-24T05:29:25.119Z,23.96
2018-03-24T05:30:23.609Z,24.04
2018-03-24T05:31:23.599Z,24.04
2018-03-24T05:32:23.880Z,24.08
2018-03-24T05:33:26.100Z,24.04
2018-03-24T05:34:23.710Z,24.02
2018-03-24T05:35:24.275Z,24.03
2018-03-24T05:36:25.113Z,24.08
2018-03-24T05:37:25.242Z,23.99
2018-03-24T05:38:24.486Z,23.92
2018-03-24T05:39:26.255Z,23.90
2018-03-24T05:40:25.602Z,23.87
2018-03-24T05:41:24.952Z,23.84
2018-03-24T05:42:23.281Z,23.79
2018-03-24T05:43:23.263Z,23.84
2018-03-24T05:44:24.805Z,23.77
2018-03-24T05:45:25.733Z,23.90
2018-03-24T05:46:23.178Z,23.97
2018-03-24T05:47:24.405Z,24.11
2018-03-24T05:48:24.832Z,24.19
2018-03-24T05:49:24.814Z,24.40
2018-03-24T05:50:23.047Z,24.55
2018-03-24T05:51:25.871Z,24.46
2018-03-24T05:52:24.335Z,24.52
2018-03-24T05:53:23.005Z,24.55
2018-03-24T05:54:24.666Z,24.54
2018-03-24T05:55:24.115Z,24.58
2018-03-24T05:56:22.880Z,24.58
2018-03-24T05:57:25.389Z,24.61
2018-03-24T05:58:24.528Z,24.75
2018-03-24T05:59:24.426Z,24.74
2018-03-24T06:00:24.475Z,24.78
2018-03-24T06:01:24.376Z,24.82
2018-03-24T06:02:24.336Z,24.77
2018-03-24T06:03:24.847Z,24.77
2018-03-24T06:04:24.567Z,24.83
2018-03-24T06:05:22.858Z,24.85
2018-03-24T06:06:24.179Z,24.75
2018-03-24T06:07:22.601Z,24.75
2018-03-24T06:08:24.357Z,24.83
2018-03-24T06:09:25.165Z,24.83
2018-03-24T06:10:23.173Z,24.86
2018-03-24T06:11:24.306Z,24.87
2018-03-24T06:12:24.149Z,24.80
2018-03-24T06:13:24.150Z,24.77
2018-03-24T06:14:24.249Z,24.77
2018-03-24T06:15:22.601Z,24.93
2018-03-24T06:16:22.460Z,25.00
2018-03-24T06:17:23.984Z,25.05
2018-03-24T06:18:22.300Z,25.04
2018-03-24T06:19:24.159Z,25.00
2018-03-24T06:20:22.276Z,25.12
2018-03-24T06:21:22.369Z,25.11
2018-03-24T06:22:23.423Z,25.09
2018-03-24T06:23:23.615Z,25.15
2018-03-24T06:24:22.526Z,25.15
2018-03-24T06:25:23.823Z,25.12
2018-03-24T06:26:24.586Z,25.02
2018-03-24T06:27:22.067Z,25.01
2018-03-24T06:28:23.661Z,24.96
2018-03-24T06:29:22.991Z,24.97
2018-03-24T06:30:23.330Z,24.96
2018-03-24T06:31:23.508Z,25.05
2018-03-24T06:32:22.194Z,25.04
2018-03-24T06:33:23.672Z,25.02
2018-03-24T06:34:23.397Z,25.01
2018-03-24T06:35:23.497Z,25.00
2018-03-24T06:36:23.205Z,24.90
2018-03-24T06:37:24.328Z,24.94
2018-03-24T06:38:23.576Z,24.94
2018-03-24T06:39:23.610Z,24.89
2018-03-24T06:40:23.347Z,24.87
2018-03-24T06:41:23.523Z,24.90
2018-03-24T06:42:22.888Z,25.01
2018-03-24T06:43:22.211Z,25.05
2018-03-24T06:44:21.764Z,25.01
2018-03-24T06:45:23.581Z,24.97
2018-03-24T06:46:21.538Z,24.93
2018-03-24T06:47:23.007Z,24.90
2018-03-24T06:48:21.586Z,24.96
2018-03-24T06:49:22.754Z,25.00
2018-03-24T06:50:22.107Z,24.97
2018-03-24T06:51:22.330Z,24.89
2018-03-24T06:52:22.449Z,24.96
2018-03-24T06:53:22.624Z,24.96
2018-03-24T06:54:23.608Z,24.92
2018-03-24T06:55:22.986Z,24.93
2018-03-24T06:56:22.580Z,24.90
2018-03-24T06:57:22.572Z,24.80
2018-03-24T06:58:22.553Z,24.82
2018-03-24T06:59:22.978Z,24.78
2018-03-24T07:00:23.012Z,24.69
2018-03-24T07:01:21.139Z,24.64
2018-03-24T07:02:22.310Z,24.61
2018-03-24T07:03:22.221Z,24.56
2018-03-24T07:04:22.704Z,24.64
2018-03-24T07:05:22.440Z,24.67
2018-03-24T07:06:23.250Z,24.58
2018-03-24T07:07:22.648Z,24.59
2018-03-24T07:08:22.463Z,24.61
2018-03-24T07:09:22.073Z,24.58
2018-03-24T07:10:20.912Z,24.64
2018-03-24T07:11:21.476Z,24.52
2018-03-24T07:12:23.205Z,24.56
2018-03-24T07:13:22.426Z,24.67
2018-03-24T07:14:21.455Z,24.63
2018-03-24T07:15:21.826Z,24.67
2018-03-24T07:16:22.252Z,24.64
2018-03-24T07:17:21.269Z,24.63
2018-03-24T07:18:21.748Z,24.69
2018-03-24T07:19:22.425Z,24.64
2018-03-24T07:20:20.628Z,24.69
2018-03-24T07:21:21.896Z,24.71
2018-03-24T07:22:22.064Z,24.75
2018-03-24T07:23:21.793Z,24.77
2018-03-24T07:24:20.616Z,24.77
2018-03-24T07:25:22.353Z,24.85
2018-03-24T07:26:20.451Z,24.78
2018-03-24T07:27:21.486Z,24.70
2018-03-24T07:28:21.858Z,24.70
2018-03-24T07:29:21.018Z,24.67
2018-03-24T07:30:22.761Z,24.64
2018-03-24T07:31:20.331Z,24.59
2018-03-24T07:32:20.315Z,24.77
2018-03-24T07:33:20.269Z,24.75
2018-03-24T07:34:20.232Z,24.70
2018-03-24T07:35:20.228Z,24.67
2018-03-24T07:36:20.300Z,24.74
2018-03-24T07:37:20.186Z,24.74
2018-03-24T07:38:20.156Z,24.77
2018-03-24T07:39:20.095Z,24.78
2018-03-24T07:40:20.074Z,24.80
2018-03-24T07:41:20.167Z,24.80
2018-03-24T07:42:20.105Z,24.75
2018-03-24T07:43:20.027Z,24.90
2018-03-24T07:44:19.976Z,24.71
2018-03-24T07:45:19.976Z,24.85
2018-03-24T07:46:20.075Z,24.85
2018-03-24T07:47:19.900Z,24.85
2018-03-24T07:48:19.877Z,24.92
2018-03-24T07:49:19.826Z,24.96
2018-03-24T07:50:19.803Z,24.94
2018-03-24T07:51:19.922Z,24.90
2018-03-24T07:52:19.752Z,24.90
2018-03-24T07:53:19.748Z,24.75
2018-03-24T07:54:19.719Z,24.80
2018-03-24T07:55:19.705Z,24.80
2018-03-24T07:56:19.755Z,24.77
2018-03-24T07:57:19.634Z,24.90
2018-03-24T07:58:19.621Z,24.96
2018-03-24T07:59:19.582Z,24.96
2018-03-24T08:00:19.554Z,24.90
2018-03-24T08:01:19.549Z,24.92
2018-03-24T08:02:19.612Z,24.93
2018-03-24T08:03:19.453Z,24.96
2018-03-24T08:04:19.451Z,24.90
2018-03-24T08:05:19.413Z,24.82
2018-03-24T08:06:19.377Z,24.87
2018-03-24T08:07:19.349Z,24.82
2018-03-24T08:08:19.420Z,24.80
2018-03-24T08:09:19.305Z,24.78
2018-03-24T08:10:19.261Z,24.96
2018-03-24T08:11:19.232Z,25.05
2018-03-24T08:12:19.203Z,25.02
2018-03-24T08:13:19.290Z,25.05
2018-03-24T08:14:19.179Z,25.07
2018-03-24T08:15:19.158Z,25.09
2018-03-24T08:16:19.119Z,25.04
2018-03-24T08:17:19.099Z,25.01
2018-03-24T08:18:19.177Z,24.94
2018-03-24T08:19:19.040Z,24.97
2018-03-24T08:20:19.000Z,25.01
2018-03-24T08:21:19.057Z,25.00
2018-03-24T08:22:18.961Z,24.94
2018-03-24T08:23:19.030Z,25.01
2018-03-24T08:24:18.904Z,25.00
2018-03-24T08:25:18.882Z,25.01
2018-03-24T08:26:18.901Z,25.08
2018-03-24T08:27:18.822Z,25.02
2018-03-24T08:28:18.899Z,25.04
2018-03-24T08:29:18.763Z,24.97
2018-03-24T08:30:18.732Z,24.89
2018-03-24T08:31:18.703Z,24.89
2018-03-24T08:32:18.683Z,24.97
2018-03-24T08:33:18.726Z,24.89
2018-03-24T08:34:18.723Z,24.96
2018-03-24T08:35:18.604Z,25.02
2018-03-24T08:36:18.578Z,24.87
2018-03-24T08:37:18.544Z,24.96
2018-03-24T08:38:18.527Z,24.94
2018-03-24T08:39:18.561Z,25.00
2018-03-24T08:40:18.589Z,24.96
2018-03-24T08:41:18.436Z,24.89
2018-03-24T08:42:18.390Z,24.90
2018-03-24T08:43:18.390Z,24.97
2018-03-24T08:44:18.355Z,24.89
2018-03-24T08:45:18.316Z,24.90
2018-03-24T08:46:18.379Z,24.97
2018-03-24T08:47:18.271Z,24.94
2018-03-24T08:48:18.255Z,24.90
2018-03-24T08:49:18.200Z,24.92
2018-03-24T08:50:18.203Z,24.86
2018-03-24T08:51:18.268Z,24.77
2018-03-24T08:52:18.123Z,24.74
2018-03-24T08:53:18.092Z,24.75
2018-03-24T08:54:18.093Z,24.86
2018-03-24T08:55:18.087Z,24.82
2018-03-24T08:56:18.127Z,24.82
2018-03-24T08:57:17.983Z,24.86
2018-03-24T08:58:18.039Z,24.94
2018-03-24T08:59:17.964Z,24.90
2018-03-24T09:00:17.903Z,24.82
2018-03-24T09:01:17.989Z,24.80
2018-03-24T09:02:17.917Z,24.92
2018-03-24T09:03:17.858Z,24.93
2018-03-24T09:04:17.822Z,24.90
2018-03-24T09:05:17.815Z,24.96
2018-03-24T09:06:17.860Z,24.96
2018-03-24T09:07:17.715Z,24.92
2018-03-24T09:08:17.717Z,24.93
2018-03-24T09:09:17.692Z,24.86
2018-03-24T09:10:17.654Z,24.78
2018-03-24T09:11:17.721Z,24.78
2018-03-24T09:12:17.686Z,24.80
2018-03-24T09:13:17.610Z,24.82
2018-03-24T09:14:17.554Z,24.82
2018-03-24T09:15:17.551Z,24.71
2018-03-24T09:16:17.486Z,24.67
2018-03-24T09:17:17.482Z,24.63
2018-03-24T09:18:17.536Z,24.58
2018-03-24T09:19:17.413Z,24.55
2018-03-24T09:20:17.384Z,24.67
2018-03-24T09:21:17.392Z,24.70
2018-03-24T09:22:17.428Z,24.70
2018-03-24T09:23:17.300Z,24.64
2018-03-24T09:24:17.403Z,24.69
2018-03-24T09:25:17.229Z,24.77
2018-03-24T09:26:17.231Z,24.74
2018-03-24T09:27:17.201Z,24.82
2018-03-24T09:28:17.167Z,24.82
2018-03-24T09:29:17.237Z,24.83
2018-03-24T09:30:17.116Z,24.77
2018-03-24T09:31:17.087Z,24.83
2018-03-24T09:32:17.041Z,24.75
2018-03-24T09:33:17.054Z,24.80
2018-03-24T09:34:17.113Z,24.75
2018-03-24T09:35:16.977Z,24.71
2018-03-24T09:36:16.958Z,24.63
2018-03-24T09:37:16.931Z,24.64
2018-03-24T09:38:16.898Z,24.61
2018-03-24T09:39:16.970Z,24.58
2018-03-24T09:40:16.838Z,24.69
2018-03-24T09:41:16.826Z,24.83
2018-03-24T09:42:16.790Z,24.78
2018-03-24T09:43:16.771Z,24.83
2018-03-24T09:44:16.797Z,24.77
2018-03-24T09:45:16.845Z,24.69
2018-03-24T09:46:16.682Z,24.61
2018-03-24T09:47:16.637Z,24.64
2018-03-24T09:48:16.638Z,24.54
2018-03-24T09:49:16.603Z,24.51
2018-03-24T09:50:16.682Z,24.52
2018-03-24T09:51:16.569Z,24.54
2018-03-24T09:52:16.511Z,24.52
2018-03-24T09:53:16.503Z,24.51
2018-03-24T09:54:16.472Z,24.51
2018-03-24T09:55:16.421Z,24.52
2018-03-24T09:56:16.498Z,24.54
2018-03-24T09:57:16.367Z,24.58
2018-03-24T09:58:16.374Z,24.49
2018-03-24T09:59:16.332Z,24.51
2018-03-24T10:00:16.289Z,24.49
2018-03-24T10:01:16.284Z,24.56
2018-03-24T10:02:16.339Z,24.51
2018-03-24T10:03:16.200Z,24.52
2018-03-24T10:04:16.204Z,24.48
2018-03-24T10:05:16.232Z,24.44
2018-03-24T10:06:16.129Z,24.52
2018-03-24T10:07:16.223Z,24.48
2018-03-24T10:08:16.125Z,24.49
2018-03-24T10:09:16.042Z,24.54
2018-03-24T10:10:16.027Z,24.51
2018-03-24T10:11:15.992Z,24.49
2018-03-24T10:12:16.076Z,24.66
2018-03-24T10:13:15.931Z,24.66
2018-03-24T10:14:15.921Z,24.69
2018-03-24T10:15:15.889Z,24.61
2018-03-24T10:16:15.877Z,24.67
2018-03-24T10:17:15.888Z,24.61
2018-03-24T10:18:15.909Z,24.61
2018-03-24T10:19:15.797Z,24.55
2018-03-24T10:20:15.742Z,24.52
2018-03-24T10:21:15.713Z,24.49
2018-03-24T10:22:15.703Z,24.55
2018-03-24T10:23:15.797Z,24.49
2018-03-24T10:24:15.651Z,24.52
2018-03-24T10:25:15.625Z,24.63
2018-03-24T10:26:15.607Z,24.61
2018-03-24T10:27:15.572Z,24.70
2018-03-24T10:28:15.658Z,24.71
2018-03-24T10:29:15.521Z,24.69
2018-03-24T10:30:15.482Z,24.61
2018-03-24T10:31:15.447Z,24.59
2018-03-24T10:32:15.440Z,24.61
2018-03-24T10:33:15.385Z,24.66
2018-03-24T10:34:15.488Z,24.69
2018-03-24T10:35:15.368Z,24.77
2018-03-24T10:36:15.316Z,24.75
2018-03-24T10:37:15.294Z,24.77
2018-03-24T10:38:15.267Z,24.64
2018-03-24T10:39:15.227Z,24.64
2018-03-24T10:40:15.324Z,24.61
2018-03-24T10:41:15.169Z,24.61
2018-03-24T10:42:15.165Z,24.64
2018-03-24T10:43:15.136Z,24.55
2018-03-24T10:44:15.097Z,24.54
2018-03-24T10:45:15.169Z,24.55
2018-03-24T10:46:15.066Z,24.52
2018-03-24T10:47:15.038Z,24.52
2018-03-24T10:48:15.007Z,24.64
2018-03-24T10:49:14.996Z,24.74
2018-03-24T10:50:14.997Z,24.69
2018-03-24T10:51:15.015Z,24.69
2018-03-24T10:52:14.927Z,24.59
2018-03-24T10:53:14.852Z,24.64
2018-03-24T10:54:14.866Z,24.67
2018-03-24T10:55:14.792Z,24.55
2018-03-24T10:56:14.880Z,24.61
2018-03-24T10:57:14.926Z,24.66
2018-03-24T10:58:14.767Z,24.64
2018-03-24T10:59:14.700Z,24.71
2018-03-24T11:00:14.689Z,24.82
2018-03-24T11:01:14.757Z,24.82
2018-03-24T11:02:14.603Z,24.86
2018-03-24T11:03:14.601Z,24.83
2018-03-24T11:04:14.559Z,24.82
2018-03-24T11:05:14.523Z,24.90
2018-03-24T11:06:14.619Z,24.90
2018-03-24T11:07:14.491Z,24.87
2018-03-24T11:08:14.447Z,24.93
2018-03-24T11:09:14.440Z,24.96
2018-03-24T11:10:14.428Z,24.90
2018-03-24T11:11:14.371Z,24.92
2018-03-24T11:12:14.435Z,24.93
2018-03-24T11:13:14.423Z,24.93
2018-03-24T11:14:14.276Z,24.93
2018-03-24T11:15:14.341Z,24.96
2018-03-24T11:16:14.269Z,24.90
2018-03-24T11:17:14.312Z,24.90
2018-03-24T11:18:14.182Z,24.77
2018-03-24T11:19:14.169Z,24.71
2018-03-24T11:20:14.150Z,24.77
2018-03-24T11:21:14.104Z,24.80
2018-03-24T11:22:14.058Z,24.89
2018-03-24T11:23:14.139Z,24.87
2018-03-24T11:24:14.018Z,24.83
2018-03-24T11:25:13.978Z,25.02
2018-03-24T11:26:13.975Z,25.08
2018-03-24T11:27:13.967Z,25.22
2018-03-24T11:28:13.968Z,25.09
2018-03-24T11:29:13.996Z,25.11
2018-03-24T11:30:13.872Z,25.09
2018-03-24T11:31:13.841Z,25.14
2018-03-24T11:32:13.816Z,25.09
2018-03-24T11:33:13.761Z,25.04
2018-03-24T11:34:13.863Z,25.05
2018-03-24T11:45:20.530Z,24.92
2018-03-24T11:46:20.460Z,24.92
2018-03-24T11:47:20.464Z,24.89
2018-03-24T11:48:20.357Z,24.90
2018-03-24T11:49:20.315Z,24.87
2018-03-24T11:50:20.282Z,24.96
2018-03-24T11:51:20.346Z,24.90
2018-03-24T11:52:20.241Z,24.87
2018-03-24T11:53:20.192Z,24.90
2018-03-24T11:54:20.187Z,24.93
2018-03-24T11:55:20.151Z,24.87
2018-03-24T11:56:20.156Z,24.93
2018-03-24T11:57:20.204Z,24.85
2018-03-24T11:58:20.068Z,24.82
2018-03-24T11:59:20.164Z,24.83
2018-03-24T12:00:20.021Z,24.83
2018-03-24T12:01:19.993Z,24.94
2018-03-24T12:02:20.063Z,24.92
2018-03-24T12:03:19.935Z,24.92
2018-03-24T12:04:19.895Z,24.85
2018-03-24T12:05:19.886Z,24.83
2018-03-24T12:06:19.914Z,24.89
2018-03-24T12:07:19.980Z,24.93
2018-03-24T12:08:19.814Z,24.90
2018-03-24T12:09:19.795Z,24.94
2018-03-24T12:10:19.746Z,25.12
2018-03-24T12:11:19.721Z,25.26
2018-03-24T12:12:19.793Z,25.30
2018-03-24T12:13:19.701Z,25.29
2018-03-24T12:14:19.700Z,25.45
2018-03-24T12:15:19.711Z,25.75
2018-03-24T12:16:19.632Z,25.79
2018-03-24T12:17:19.714Z,25.79
2018-03-24T12:18:19.837Z,25.99
2018-03-24T12:19:19.655Z,26.22
2018-03-24T12:20:19.468Z,26.32
2018-03-24T12:21:19.492Z,26.23
2018-03-24T12:22:19.457Z,26.12
2018-03-24T12:23:19.517Z,26.06
2018-03-24T12:24:19.342Z,26.03
2018-03-24T12:25:19.338Z,25.96
2018-03-24T12:26:19.378Z,25.93
2018-03-24T12:27:19.273Z,26.09
2018-03-24T12:28:19.310Z,25.96
2018-03-24T12:29:19.335Z,26.01
2018-03-24T12:30:19.201Z,26.04
2018-03-24T12:31:19.197Z,26.60
2018-03-24T12:32:19.168Z,27.24
2018-03-24T12:33:20.834Z,27.99
2018-03-24T12:34:19.288Z,28.53
2018-03-24T12:35:20.156Z,28.91
2018-03-24T12:36:20.093Z,29.29
2018-03-24T12:37:19.030Z,29.30
2018-03-24T12:38:19.030Z,29.66
2018-03-24T12:39:18.946Z,29.77
2018-03-24T12:40:18.998Z,29.98
2018-03-24T12:41:21.152Z,30.09
2018-03-24T12:42:18.868Z,30.14
2018-03-24T12:43:18.913Z,30.34
2018-03-24T12:44:18.827Z,30.60
2018-03-24T12:45:19.317Z,30.40
2018-03-24T12:46:18.778Z,30.42
2018-03-24T12:47:18.847Z,30.44
2018-03-24T12:48:18.720Z,30.60
2018-03-24T12:49:18.708Z,30.39
2018-03-24T12:50:18.830Z,30.14
2018-03-24T12:51:20.357Z,30.06
2018-03-24T12:52:18.790Z,29.95
2018-03-24T12:53:18.638Z,29.54
2018-03-24T12:54:19.597Z,29.24
2018-03-24T12:55:20.246Z,29.17
2018-03-24T12:56:18.537Z,28.98
2018-03-24T12:57:18.544Z,28.88
2018-03-24T12:58:18.642Z,28.92
2018-03-24T12:59:18.538Z,28.90
2018-03-24T13:00:18.437Z,28.76
2018-03-24T13:01:18.417Z,28.67
2018-03-24T13:02:18.386Z,28.76
2018-03-24T13:03:18.350Z,28.91